sensor_id;sensor_type;location;lat;lon;timestamp;pressure;altitude;pressure_sealevel;temperature;humidity
38227;BME280;24026;49.446;8.576;2023-03-03T00:00:44;100822.56;;;13.81;34.83
38227;BME280;24026;49.446;8.576;2023-03-03T00:03:07;100816.94;;;13.77;35.02
38227;BME280;24026;49.446;8.576;2023-03-03T00:05:27;100816.94;;;13.77;35.13
38227;BME280;24026;49.446;8.576;2023-03-03T00:07:48;100817.97;;;13.76;34.76
38227;BME280;24026;49.446;8.576;2023-03-03T00:10:09;100814.75;;;13.74;35.09
38227;BME280;24026;49.446;8.576;2023-03-03T00:12:29;100815.81;;;13.73;34.72
38227;BME280;24026;49.446;8.576;2023-03-03T00:14:50;100812.34;;;13.73;34.99
38227;BME280;24026;49.446;8.576;2023-03-03T00:17:24;100804.28;;;13.67;35.06
38227;BME280;24026;49.446;8.576;2023-03-03T00:19:45;100821.94;;;13.68;34.92
38227;BME280;24026;49.446;8.576;2023-03-03T00:22:15;100817.09;;;13.65;34.99
38227;BME280;24026;49.446;8.576;2023-03-03T00:24:40;100818.69;;;13.66;35.14
38227;BME280;24026;49.446;8.576;2023-03-03T00:27:15;100817.34;;;13.64;34.96
38227;BME280;24026;49.446;8.576;2023-03-03T00:29:39;100834.16;;;13.64;35.00
38227;BME280;24026;49.446;8.576;2023-03-03T00:32:19;100836.53;;;13.61;35.03
38227;BME280;24026;49.446;8.576;2023-03-03T00:34:41;100818.38;;;13.63;34.95
38227;BME280;24026;49.446;8.576;2023-03-03T00:37:02;100822.13;;;13.62;35.22
38227;BME280;24026;49.446;8.576;2023-03-03T00:41:49;100829.84;;;13.58;35.08
38227;BME280;24026;49.446;8.576;2023-03-03T00:49:43;100834.59;;;13.56;35.00
38227;BME280;24026;49.446;8.576;2023-03-03T00:52:13;100838.03;;;13.51;35.10
38227;BME280;24026;49.446;8.576;2023-03-03T00:54:35;100844.97;;;13.52;35.01
38227;BME280;24026;49.446;8.576;2023-03-03T00:56:55;100839.63;;;13.52;35.19
38227;BME280;24026;49.446;8.576;2023-03-03T00:59:15;100836.16;;;13.52;35.07
38227;BME280;24026;49.446;8.576;2023-03-03T01:01:36;100841.22;;;13.48;35.24
38227;BME280;24026;49.446;8.576;2023-03-03T01:03:56;100843.06;;;13.48;35.06
38227;BME280;24026;49.446;8.576;2023-03-03T01:06:17;100841.44;;;13.47;35.16
38227;BME280;24026;49.446;8.576;2023-03-03T01:08:37;100847.84;;;13.46;35.14
38227;BME280;24026;49.446;8.576;2023-03-03T01:11:02;100843.56;;;13.45;35.21
38227;BME280;24026;49.446;8.576;2023-03-03T01:13:27;100839.03;;;13.45;35.35
38227;BME280;24026;49.446;8.576;2023-03-03T01:15:49;100831.28;;;13.44;35.20
38227;BME280;24026;49.446;8.576;2023-03-03T01:18:10;100837.91;;;13.41;35.09
38227;BME280;24026;49.446;8.576;2023-03-03T01:20:31;100835.75;;;13.38;35.07
38227;BME280;24026;49.446;8.576;2023-03-03T01:22:51;100837.34;;;13.39;35.10
38227;BME280;24026;49.446;8.576;2023-03-03T01:25:12;100832.25;;;13.38;35.31
38227;BME280;24026;49.446;8.576;2023-03-03T01:27:34;100836.00;;;13.37;35.19
38227;BME280;24026;49.446;8.576;2023-03-03T01:29:55;100831.72;;;13.36;35.30
38227;BME280;24026;49.446;8.576;2023-03-03T01:32:15;100832.75;;;13.34;35.07
38227;BME280;24026;49.446;8.576;2023-03-03T01:34:36;100834.63;;;13.34;35.07
38227;BME280;24026;49.446;8.576;2023-03-03T01:36:56;100830.31;;;13.33;35.30
38227;BME280;24026;49.446;8.576;2023-03-03T01:39:16;100840.41;;;13.31;35.35
38227;BME280;24026;49.446;8.576;2023-03-03T01:41:37;100832.41;;;13.31;35.35
38227;BME280;24026;49.446;8.576;2023-03-03T01:43:59;100830.81;;;13.30;35.12
38227;BME280;24026;49.446;8.576;2023-03-03T01:48:44;100836.41;;;13.28;35.48
38227;BME280;24026;49.446;8.576;2023-03-03T01:51:20;100829.38;;;13.22;35.45
38227;BME280;24026;49.446;8.576;2023-03-03T01:53:47;100830.19;;;13.23;35.44
38227;BME280;24026;49.446;8.576;2023-03-03T01:56:09;100825.31;;;13.20;35.55
38227;BME280;24026;49.446;8.576;2023-03-03T01:58:35;100821.06;;;13.19;35.38
38227;BME280;24026;49.446;8.576;2023-03-03T02:01:00;100828.00;;;13.20;35.29
38227;BME280;24026;49.446;8.576;2023-03-03T02:03:22;100829.88;;;13.19;35.43
38227;BME280;24026;49.446;8.576;2023-03-03T02:05:43;100829.88;;;13.19;35.21
38227;BME280;24026;49.446;8.576;2023-03-03T02:08:04;100831.19;;;13.16;35.30
38227;BME280;24026;49.446;8.576;2023-03-03T02:10:27;100823.19;;;13.16;35.13
38227;BME280;24026;49.446;8.576;2023-03-03T02:15:25;100824.97;;;13.11;35.34
38227;BME280;24026;49.446;8.576;2023-03-03T02:17:47;100821.50;;;13.10;35.31
38227;BME280;24026;49.446;8.576;2023-03-03T02:20:18;100814.28;;;13.11;35.27
38227;BME280;24026;49.446;8.576;2023-03-03T02:25:29;100821.69;;;13.04;35.31
38227;BME280;24026;49.446;8.576;2023-03-03T02:27:52;100819.31;;;13.07;35.30
38227;BME280;24026;49.446;8.576;2023-03-03T02:30:15;100818.28;;;13.08;35.42
38227;BME280;24026;49.446;8.576;2023-03-03T02:32:36;100811.88;;;13.09;35.31
38227;BME280;24026;49.446;8.576;2023-03-03T02:34:56;100809.69;;;13.06;35.27
38227;BME280;24026;49.446;8.576;2023-03-03T02:37:18;100813.66;;;13.04;35.25
38227;BME280;24026;49.446;8.576;2023-03-03T02:39:39;100812.63;;;13.05;35.46
38227;BME280;24026;49.446;8.576;2023-03-03T02:44:30;100817.13;;;13.04;35.25
38227;BME280;24026;49.446;8.576;2023-03-03T02:46:53;100823.53;;;13.03;35.27
38227;BME280;24026;49.446;8.576;2023-03-03T02:49:25;100814.41;;;12.99;35.54
38227;BME280;24026;49.446;8.576;2023-03-03T02:51:47;100819.75;;;12.99;35.40
38227;BME280;24026;49.446;8.576;2023-03-03T02:54:08;100820.53;;;13.00;35.21
38227;BME280;24026;49.446;8.576;2023-03-03T02:56:29;100825.31;;;12.97;35.42
38227;BME280;24026;49.446;8.576;2023-03-03T02:58:49;100819.19;;;12.97;35.36
38227;BME280;24026;49.446;8.576;2023-03-03T03:01:10;100816.53;;;12.97;35.46
38227;BME280;24026;49.446;8.576;2023-03-03T03:03:30;100815.97;;;12.95;35.23
38227;BME280;24026;49.446;8.576;2023-03-03T03:05:51;100814.09;;;12.95;35.24
38227;BME280;24026;49.446;8.576;2023-03-03T03:08:11;100817.25;;;12.92;35.37
38227;BME280;24026;49.446;8.576;2023-03-03T03:10:32;100810.03;;;12.93;35.16
38227;BME280;24026;49.446;8.576;2023-03-03T03:12:52;100811.13;;;12.92;35.18
38227;BME280;24026;49.446;8.576;2023-03-03T03:15:13;100816.44;;;12.92;35.24
38227;BME280;24026;49.446;8.576;2023-03-03T03:17:37;100821.22;;;12.90;35.36
38227;BME280;24026;49.446;8.576;2023-03-03T03:19:57;100818.81;;;12.88;35.22
38227;BME280;24026;49.446;8.576;2023-03-03T03:22:18;100817.97;;;12.88;35.44
38227;BME280;24026;49.446;8.576;2023-03-03T03:24:38;100819.06;;;12.87;35.36
38227;BME280;24026;49.446;8.576;2023-03-03T03:26:59;100814.75;;;12.86;35.36
38227;BME280;24026;49.446;8.576;2023-03-03T03:29:19;100818.50;;;12.85;35.39
38227;BME280;24026;49.446;8.576;2023-03-03T03:31:40;100815.25;;;12.83;35.21
38227;BME280;24026;49.446;8.576;2023-03-03T03:34:02;100813.66;;;12.82;35.25
38227;BME280;24026;49.446;8.576;2023-03-03T03:36:23;100824.31;;;12.82;35.39
38227;BME280;24026;49.446;8.576;2023-03-03T03:38:43;100830.94;;;12.79;35.32
38227;BME280;24026;49.446;8.576;2023-03-03T03:41:05;100826.41;;;12.79;35.28
38227;BME280;24026;49.446;8.576;2023-03-03T03:43:25;100827.22;;;12.80;35.29
38227;BME280;24026;49.446;8.576;2023-03-03T03:45:46;100823.19;;;12.77;35.10
38227;BME280;24026;49.446;8.576;2023-03-03T03:48:06;100828.50;;;12.77;35.20
38227;BME280;24026;49.446;8.576;2023-03-03T03:50:27;100826.91;;;12.76;35.31
38227;BME280;24026;49.446;8.576;2023-03-03T03:52:47;100833.28;;;12.75;35.25
38227;BME280;24026;49.446;8.576;2023-03-03T03:55:08;100836.44;;;12.72;35.45
38227;BME280;24026;49.446;8.576;2023-03-03T03:57:29;100828.69;;;12.71;35.29
38227;BME280;24026;49.446;8.576;2023-03-03T03:59:49;100836.94;;;12.69;35.30
38227;BME280;24026;49.446;8.576;2023-03-03T04:02:10;100831.59;;;12.69;35.39
38227;BME280;24026;49.446;8.576;2023-03-03T04:04:30;100836.38;;;12.67;35.35
38227;BME280;24026;49.446;8.576;2023-03-03T04:06:51;100844.13;;;12.69;35.36
38227;BME280;24026;49.446;8.576;2023-03-03T04:09:11;100836.38;;;12.67;35.42
38227;BME280;24026;49.446;8.576;2023-03-03T04:11:31;100849.72;;;12.67;35.34
38227;BME280;24026;49.446;8.576;2023-03-03T04:13:52;100841.16;;;12.65;35.44
38227;BME280;24026;49.446;8.576;2023-03-03T04:16:12;100839.75;;;12.63;35.35
38227;BME280;24026;49.446;8.576;2023-03-03T04:18:32;100845.34;;;12.61;35.23
38227;BME280;24026;49.446;8.576;2023-03-03T04:20:53;100835.50;;;12.62;35.36
38227;BME280;24026;49.446;8.576;2023-03-03T04:23:14;100834.66;;;12.61;35.12
38227;BME280;24026;49.446;8.576;2023-03-03T04:25:35;100823.69;;;12.57;35.33
38227;BME280;24026;49.446;8.576;2023-03-03T04:27:55;100840.53;;;12.58;35.23
38227;BME280;24026;49.446;8.576;2023-03-03T04:30:15;100840.75;;;12.56;35.26
38227;BME280;24026;49.446;8.576;2023-03-03T04:32:36;100847.94;;;12.56;35.18
38227;BME280;24026;49.446;8.576;2023-03-03T04:34:56;100840.41;;;12.53;35.41
38227;BME280;24026;49.446;8.576;2023-03-03T04:37:17;100838.56;;;12.53;35.16
38227;BME280;24026;49.446;8.576;2023-03-03T04:39:37;100835.09;;;12.53;35.11
38227;BME280;24026;49.446;8.576;2023-03-03T04:41:57;100837.75;;;12.53;35.26
38227;BME280;24026;49.446;8.576;2023-03-03T04:44:18;100844.16;;;12.52;35.21
38227;BME280;24026;49.446;8.576;2023-03-03T04:46:38;100848.69;;;12.51;34.98
38227;BME280;24026;49.446;8.576;2023-03-03T04:48:59;100851.34;;;12.51;35.35
38227;BME280;24026;49.446;8.576;2023-03-03T04:51:20;100856.91;;;12.50;35.19
38227;BME280;24026;49.446;8.576;2023-03-03T04:53:40;100857.16;;;12.48;35.18
38227;BME280;24026;49.446;8.576;2023-03-03T04:56:00;100858.75;;;12.49;35.27
38227;BME280;24026;49.446;8.576;2023-03-03T04:58:21;100855.28;;;12.49;35.10
38227;BME280;24026;49.446;8.576;2023-03-03T05:00:41;100869.34;;;12.61;35.00
38227;BME280;24026;49.446;8.576;2023-03-03T05:03:02;100859.72;;;12.77;34.68
38227;BME280;24026;49.446;8.576;2023-03-03T05:05:22;100860.50;;;12.94;34.21
38227;BME280;24026;49.446;8.576;2023-03-03T05:07:42;100858.38;;;13.13;33.90
38227;BME280;24026;49.446;8.576;2023-03-03T05:10:03;100864.44;;;13.31;33.60
38227;BME280;24026;49.446;8.576;2023-03-03T05:12:24;100864.94;;;13.45;33.17
38227;BME280;24026;49.446;8.576;2023-03-03T05:14:44;100874.41;;;13.58;32.96
38227;BME280;24026;49.446;8.576;2023-03-03T05:17:05;100869.22;;;13.73;32.78
38227;BME280;24026;49.446;8.576;2023-03-03T05:19:25;100873.13;;;13.87;32.64
38227;BME280;24026;49.446;8.576;2023-03-03T05:21:45;100871.94;;;14.00;32.39
38227;BME280;24026;49.446;8.576;2023-03-03T05:24:06;100884.16;;;14.18;32.15
38227;BME280;24026;49.446;8.576;2023-03-03T05:26:26;100880.47;;;14.30;31.87
38227;BME280;24026;49.446;8.576;2023-03-03T05:28:47;100879.22;;;14.37;31.63
38227;BME280;24026;49.446;8.576;2023-03-03T05:31:07;100880.34;;;14.46;31.59
38227;BME280;24026;49.446;8.576;2023-03-03T05:33:27;100890.31;;;14.56;31.33
38227;BME280;24026;49.446;8.576;2023-03-03T05:35:53;100888.84;;;14.66;31.11
38227;BME280;24026;49.446;8.576;2023-03-03T05:38:13;100894.78;;;14.78;30.99
38227;BME280;24026;49.446;8.576;2023-03-03T05:40:33;100891.91;;;14.85;30.86
38227;BME280;24026;49.446;8.576;2023-03-03T05:42:54;100894.88;;;14.93;30.73
38227;BME280;24026;49.446;8.576;2023-03-03T05:45:14;100897.91;;;15.02;30.60
38227;BME280;24026;49.446;8.576;2023-03-03T05:47:35;100904.38;;;15.11;30.56
38227;BME280;24026;49.446;8.576;2023-03-03T05:49:55;100896.38;;;15.22;30.28
38227;BME280;24026;49.446;8.576;2023-03-03T05:52:15;100910.63;;;15.27;30.16
38227;BME280;24026;49.446;8.576;2023-03-03T05:54:36;100912.25;;;15.33;30.12
38227;BME280;24026;49.446;8.576;2023-03-03T05:56:56;100908.53;;;15.40;29.99
38227;BME280;24026;49.446;8.576;2023-03-03T05:59:17;100913.13;;;15.49;29.74
38227;BME280;24026;49.446;8.576;2023-03-03T06:01:39;100918.25;;;15.56;29.81
38227;BME280;24026;49.446;8.576;2023-03-03T06:04:00;100917.22;;;15.62;29.70
38227;BME280;24026;49.446;8.576;2023-03-03T06:06:20;100917.78;;;15.69;29.36
38227;BME280;24026;49.446;8.576;2023-03-03T06:08:40;100921.53;;;15.73;29.58
38227;BME280;24026;49.446;8.576;2023-03-03T06:11:01;100913.19;;;15.60;29.80
38227;BME280;24026;49.446;8.576;2023-03-03T06:13:21;100906.47;;;15.52;29.84
38227;BME280;24026;49.446;8.576;2023-03-03T06:15:41;100913.44;;;15.63;29.52
38227;BME280;24026;49.446;8.576;2023-03-03T06:18:02;100918.59;;;15.75;29.39
38227;BME280;24026;49.446;8.576;2023-03-03T06:20:23;100914.63;;;15.83;29.18
38227;BME280;24026;49.446;8.576;2023-03-03T06:22:43;100913.84;;;15.87;29.10
38227;BME280;24026;49.446;8.576;2023-03-03T06:25:04;100911.69;;;15.89;29.09
38227;BME280;24026;49.446;8.576;2023-03-03T06:27:24;100910.09;;;15.93;28.92
38227;BME280;24026;49.446;8.576;2023-03-03T06:29:44;100913.03;;;15.87;28.90
38227;BME280;24026;49.446;8.576;2023-03-03T06:32:05;100919.47;;;15.81;29.08
38227;BME280;24026;49.446;8.576;2023-03-03T06:34:25;100914.25;;;15.59;28.98
38227;BME280;24026;49.446;8.576;2023-03-03T06:36:46;100921.94;;;15.45;29.42
38227;BME280;24026;49.446;8.576;2023-03-03T06:39:07;100928.91;;;15.41;29.56
38227;BME280;24026;49.446;8.576;2023-03-03T06:41:27;100926.72;;;15.32;29.65
38227;BME280;24026;49.446;8.576;2023-03-03T06:43:47;100928.28;;;15.23;29.49
38227;BME280;24026;49.446;8.576;2023-03-03T06:46:08;100926.38;;;15.18;29.52
38227;BME280;24026;49.446;8.576;2023-03-03T06:48:29;100931.75;;;15.18;29.40
38227;BME280;24026;49.446;8.576;2023-03-03T06:50:50;100938.38;;;15.11;29.61
38227;BME280;24026;49.446;8.576;2023-03-03T06:53:13;100938.16;;;15.17;29.59
38227;BME280;24026;49.446;8.576;2023-03-03T06:55:33;100953.97;;;15.19;29.63
38227;BME280;24026;49.446;8.576;2023-03-03T06:57:54;100952.66;;;15.27;29.42
38227;BME280;24026;49.446;8.576;2023-03-03T07:00:25;100973.03;;;15.33;29.34
38227;BME280;24026;49.446;8.576;2023-03-03T07:03:13;100969.09;;;15.41;29.05
38227;BME280;24026;49.446;8.576;2023-03-03T07:05:34;100976.41;;;15.55;28.98
38227;BME280;24026;49.446;8.576;2023-03-03T07:07:56;100974.56;;;15.66;28.85
38227;BME280;24026;49.446;8.576;2023-03-03T07:10:25;100971.16;;;15.76;28.85
38227;BME280;24026;49.446;8.576;2023-03-03T07:12:45;100979.25;;;15.91;28.37
38227;BME280;24026;49.446;8.576;2023-03-03T07:15:16;100982.47;;;15.99;28.32
38227;BME280;24026;49.446;8.576;2023-03-03T07:17:43;100982.03;;;16.17;28.11
38227;BME280;24026;49.446;8.576;2023-03-03T07:20:17;100978.28;;;16.28;27.83
38227;BME280;24026;49.446;8.576;2023-03-03T07:22:37;100979.91;;;16.40;27.92
38227;BME280;24026;49.446;8.576;2023-03-03T07:24:59;100985.28;;;16.50;27.76
38227;BME280;24026;49.446;8.576;2023-03-03T07:27:28;100981.81;;;16.60;27.57
38227;BME280;24026;49.446;8.576;2023-03-03T07:29:51;100982.91;;;16.64;27.58
38227;BME280;24026;49.446;8.576;2023-03-03T07:34:55;100989.59;;;16.77;27.45
38227;BME280;24026;49.446;8.576;2023-03-03T07:37:20;100996.09;;;16.86;27.20
38227;BME280;24026;49.446;8.576;2023-03-03T07:39:46;100991.47;;;16.81;27.41
38227;BME280;24026;49.446;8.576;2023-03-03T07:42:21;101000.59;;;16.65;27.61
38227;BME280;24026;49.446;8.576;2023-03-03T07:44:42;100993.59;;;16.54;27.95
38227;BME280;24026;49.446;8.576;2023-03-03T07:47:19;100996.53;;;16.32;28.02
38227;BME280;24026;49.446;8.576;2023-03-03T07:49:44;101008.88;;;16.27;28.20
38227;BME280;24026;49.446;8.576;2023-03-03T07:54:48;101002.09;;;16.09;28.38
38227;BME280;24026;49.446;8.576;2023-03-03T07:59:51;101004.50;;;16.01;28.39
38227;BME280;24026;49.446;8.576;2023-03-03T08:02:29;100996.47;;;16.06;28.24
38227;BME280;24026;49.446;8.576;2023-03-03T08:04:52;101011.22;;;16.14;28.34
38227;BME280;24026;49.446;8.576;2023-03-03T08:07:16;101010.16;;;16.09;28.27
38227;BME280;24026;49.446;8.576;2023-03-03T08:09:41;101010.69;;;16.11;28.27
38227;BME280;24026;49.446;8.576;2023-03-03T08:14:37;101030.22;;;15.49;28.93
38227;BME280;24026;49.446;8.576;2023-03-03T08:16:58;101030.41;;;15.37;29.16
38227;BME280;24026;49.446;8.576;2023-03-03T08:19:19;101031.75;;;15.40;29.23
38227;BME280;24026;49.446;8.576;2023-03-03T08:21:40;101032.38;;;15.52;29.04
38227;BME280;24026;49.446;8.576;2023-03-03T08:24:00;101035.88;;;15.57;28.82
38227;BME280;24026;49.446;8.576;2023-03-03T08:26:22;101029.78;;;15.67;28.89
38227;BME280;24026;49.446;8.576;2023-03-03T08:28:43;101038.72;;;15.83;28.70
38227;BME280;24026;49.446;8.576;2023-03-03T08:31:03;101039.09;;;16.02;28.50
38227;BME280;24026;49.446;8.576;2023-03-03T08:33:24;101046.38;;;16.17;28.33
38227;BME280;24026;49.446;8.576;2023-03-03T08:35:45;101045.06;;;16.35;28.14
38227;BME280;24026;49.446;8.576;2023-03-03T08:38:06;101038.69;;;16.57;27.75
38227;BME280;24026;49.446;8.576;2023-03-03T08:40:27;101041.69;;;16.76;27.67
38227;BME280;24026;49.446;8.576;2023-03-03T08:42:47;101039.31;;;16.95;27.19
38227;BME280;24026;49.446;8.576;2023-03-03T08:45:08;101033.66;;;17.12;27.12
38227;BME280;24026;49.446;8.576;2023-03-03T08:47:28;101031.50;;;17.24;26.87
38227;BME280;24026;49.446;8.576;2023-03-03T08:49:48;101035.22;;;17.44;26.85
38227;BME280;24026;49.446;8.576;2023-03-03T08:52:09;101036.03;;;17.49;26.65
38227;BME280;24026;49.446;8.576;2023-03-03T08:54:29;101028.50;;;17.56;26.79
38227;BME280;24026;49.446;8.576;2023-03-03T08:56:50;101028.97;;;17.74;26.45
38227;BME280;24026;49.446;8.576;2023-03-03T08:59:11;101030.09;;;17.68;26.64
38227;BME280;24026;49.446;8.576;2023-03-03T09:01:33;101038.41;;;17.71;26.60
38227;BME280;24026;49.446;8.576;2023-03-03T09:03:54;101040.84;;;17.68;26.65
38227;BME280;24026;49.446;8.576;2023-03-03T09:06:14;101045.16;;;17.53;26.88
38227;BME280;24026;49.446;8.576;2023-03-03T09:08:34;101037.38;;;17.47;26.82
38227;BME280;24026;49.446;8.576;2023-03-03T09:10:55;101046.25;;;17.42;26.99
38227;BME280;24026;49.446;8.576;2023-03-03T09:13:18;101046.50;;;17.40;26.98
38227;BME280;24026;49.446;8.576;2023-03-03T09:15:38;101047.34;;;17.41;27.28
38227;BME280;24026;49.446;8.576;2023-03-03T09:21:35;101050.03;;;17.26;27.37
38227;BME280;24026;49.446;8.576;2023-03-03T09:23:58;101044.13;;;17.29;27.31
38227;BME280;24026;49.446;8.576;2023-03-03T09:31:45;101052.72;;;17.20;27.40
38227;BME280;24026;49.446;8.576;2023-03-03T09:34:23;101048.69;;;17.18;27.56
38227;BME280;24026;49.446;8.576;2023-03-03T09:36:44;101051.66;;;17.16;27.54
38227;BME280;24026;49.446;8.576;2023-03-03T09:39:17;101048.72;;;17.08;27.77
38227;BME280;24026;49.446;8.576;2023-03-03T09:44:58;101050.03;;;17.05;27.80
38227;BME280;24026;49.446;8.576;2023-03-03T10:03:25;101063.19;;;16.91;27.96
38227;BME280;24026;49.446;8.576;2023-03-03T10:12:04;101056.47;;;16.89;28.16
38227;BME280;24026;49.446;8.576;2023-03-03T10:14:37;101061.31;;;16.92;28.15
38227;BME280;24026;49.446;8.576;2023-03-03T10:17:08;101065.09;;;16.91;28.09
38227;BME280;24026;49.446;8.576;2023-03-03T10:19:59;101058.09;;;16.90;28.38
38227;BME280;24026;49.446;8.576;2023-03-03T10:28:31;101063.72;;;16.88;28.49
38227;BME280;24026;49.446;8.576;2023-03-03T10:39:46;101066.38;;;16.83;28.48
38227;BME280;24026;49.446;8.576;2023-03-03T10:50:20;101050.84;;;16.90;28.55
38227;BME280;24026;49.446;8.576;2023-03-03T10:52:49;101057.56;;;16.88;28.78
38227;BME280;24026;49.446;8.576;2023-03-03T11:00:44;101065.88;;;16.86;28.66
38227;BME280;24026;49.446;8.576;2023-03-03T11:05:53;101061.31;;;16.87;28.73
38227;BME280;24026;49.446;8.576;2023-03-03T11:08:27;101065.31;;;16.84;28.84
38227;BME280;24026;49.446;8.576;2023-03-03T11:13:48;101071.25;;;16.86;28.88
38227;BME280;24026;49.446;8.576;2023-03-03T11:16:40;101063.19;;;16.86;28.72
38227;BME280;24026;49.446;8.576;2023-03-03T11:21:46;101064.50;;;16.83;28.76
38227;BME280;24026;49.446;8.576;2023-03-03T11:26:41;101060.50;;;16.86;28.79
38227;BME280;24026;49.446;8.576;2023-03-03T11:29:19;101057.84;;;16.86;28.81
38227;BME280;24026;49.446;8.576;2023-03-03T11:36:48;101044.66;;;16.90;29.02
38227;BME280;24026;49.446;8.576;2023-03-03T11:39:15;101051.09;;;16.89;28.92
38227;BME280;24026;49.446;8.576;2023-03-03T11:41:45;101045.19;;;16.87;29.12
38227;BME280;24026;49.446;8.576;2023-03-03T11:44:40;101043.56;;;16.85;28.99
38227;BME280;24026;49.446;8.576;2023-03-03T11:47:09;101041.19;;;16.89;29.04
38227;BME280;24026;49.446;8.576;2023-03-03T11:49:40;101037.94;;;16.87;28.97
38227;BME280;24026;49.446;8.576;2023-03-03T11:52:06;101039.31;;;16.90;28.94
38227;BME280;24026;49.446;8.576;2023-03-03T11:54:55;101029.09;;;16.87;29.01
38227;BME280;24026;49.446;8.576;2023-03-03T12:03:07;101032.28;;;16.83;29.06
38227;BME280;24026;49.446;8.576;2023-03-03T12:16:04;101032.78;;;16.44;29.99
38227;BME280;24026;49.446;8.576;2023-03-03T12:19:05;101028.47;;;16.54;29.73
38227;BME280;24026;49.446;8.576;2023-03-03T12:21:46;101018.31;;;16.61;29.63
38227;BME280;24026;49.446;8.576;2023-03-03T12:24:32;101018.59;;;16.70;29.48
38227;BME280;24026;49.446;8.576;2023-03-03T12:30:19;101010.00;;;16.67;29.67
38227;BME280;24026;49.446;8.576;2023-03-03T12:35:51;100995.75;;;16.72;29.62
38227;BME280;24026;49.446;8.576;2023-03-03T12:43:55;100996.84;;;16.76;29.48
38227;BME280;24026;49.446;8.576;2023-03-03T12:48:41;100987.19;;;16.80;29.60
38227;BME280;24026;49.446;8.576;2023-03-03T12:51:33;100983.44;;;16.76;29.55
38227;BME280;24026;49.446;8.576;2023-03-03T12:56:29;100977.28;;;16.81;29.62
38227;BME280;24026;49.446;8.576;2023-03-03T12:59:06;100970.28;;;16.80;29.64
38227;BME280;24026;49.446;8.576;2023-03-03T13:04:37;100965.72;;;16.80;29.47
38227;BME280;24026;49.446;8.576;2023-03-03T13:07:12;100966.25;;;16.82;29.56
38227;BME280;24026;49.446;8.576;2023-03-03T13:15:17;100965.72;;;16.85;29.73
38227;BME280;24026;49.446;8.576;2023-03-03T13:17:54;100967.06;;;16.78;29.89
38227;BME280;24026;49.446;8.576;2023-03-03T13:22:53;100971.94;;;16.86;29.58
38227;BME280;24026;49.446;8.576;2023-03-03T13:25:34;100966.25;;;16.82;29.78
38227;BME280;24026;49.446;8.576;2023-03-03T13:30:46;100958.22;;;16.88;29.60
38227;BME280;24026;49.446;8.576;2023-03-03T13:33:17;100958.22;;;16.88;29.81
38227;BME280;24026;49.446;8.576;2023-03-03T13:36:02;100956.06;;;16.90;29.73
38227;BME280;24026;49.446;8.576;2023-03-03T13:38:40;100945.59;;;16.88;29.79
38227;BME280;24026;49.446;8.576;2023-03-03T13:41:16;100957.13;;;16.94;29.82
38227;BME280;24026;49.446;8.576;2023-03-03T13:43:48;100952.59;;;16.94;29.76
38227;BME280;24026;49.446;8.576;2023-03-03T13:46:40;100949.66;;;16.91;29.88
38227;BME280;24026;49.446;8.576;2023-03-03T13:49:19;100943.72;;;16.94;29.86
38227;BME280;24026;49.446;8.576;2023-03-03T13:52:07;100945.34;;;16.95;29.86
38227;BME280;24026;49.446;8.576;2023-03-03T14:05:18;100931.63;;;16.96;29.81
38227;BME280;24026;49.446;8.576;2023-03-03T14:10:25;100927.88;;;17.02;29.80
38227;BME280;24026;49.446;8.576;2023-03-03T14:12:50;100921.69;;;17.02;29.74
38227;BME280;24026;49.446;8.576;2023-03-03T14:15:34;100920.38;;;16.99;29.70
38227;BME280;24026;49.446;8.576;2023-03-03T14:18:04;100922.22;;;17.09;29.66
38227;BME280;24026;49.446;8.576;2023-03-03T14:20:31;100914.47;;;17.02;29.85
38227;BME280;24026;49.446;8.576;2023-03-03T14:25:16;100912.31;;;16.99;29.87
38227;BME280;24026;49.446;8.576;2023-03-03T14:33:01;100898.06;;;16.99;29.94
38227;BME280;24026;49.446;8.576;2023-03-03T14:35:22;100901.00;;;17.08;30.18
38227;BME280;24026;49.446;8.576;2023-03-03T14:37:45;100899.41;;;17.01;29.78
38227;BME280;24026;49.446;8.576;2023-03-03T14:47:44;100907.44;;;17.07;29.68
38227;BME280;24026;49.446;8.576;2023-03-03T14:50:38;100901.31;;;17.01;30.00
38227;BME280;24026;49.446;8.576;2023-03-03T14:55:52;100897.00;;;17.00;29.86
38227;BME280;24026;49.446;8.576;2023-03-03T14:58:39;100901.03;;;16.97;30.06
38227;BME280;24026;49.446;8.576;2023-03-03T15:06:42;100901.03;;;17.02;29.97
38227;BME280;24026;49.446;8.576;2023-03-03T15:11:45;100896.47;;;17.03;30.00
38227;BME280;24026;49.446;8.576;2023-03-03T15:14:18;100887.88;;;17.01;29.94
38227;BME280;24026;49.446;8.576;2023-03-03T15:16:39;100898.34;;;17.08;29.80
38227;BME280;24026;49.446;8.576;2023-03-03T15:21:36;100893.75;;;17.08;29.89
38227;BME280;24026;49.446;8.576;2023-03-03T15:27:02;100892.69;;;16.99;29.92
38227;BME280;24026;49.446;8.576;2023-03-03T15:29:31;100893.50;;;17.04;30.09
38227;BME280;24026;49.446;8.576;2023-03-03T15:32:36;100900.47;;;17.06;29.95
38227;BME280;24026;49.446;8.576;2023-03-03T15:35:24;100906.13;;;17.04;30.05
38227;BME280;24026;49.446;8.576;2023-03-03T15:37:59;100901.28;;;17.06;30.00
38227;BME280;24026;49.446;8.576;2023-03-03T15:40:34;100906.91;;;17.10;30.01
38227;BME280;24026;49.446;8.576;2023-03-03T15:45:56;100894.84;;;17.02;30.01
38227;BME280;24026;49.446;8.576;2023-03-03T15:48:41;100899.13;;;17.03;29.88
38227;BME280;24026;49.446;8.576;2023-03-03T15:51:29;100900.47;;;17.06;
38227;BME280;24026;49.446;8.576;2023-03-03T15:56:57;100909.63;;;16.99;30.17
38227;BME280;24026;49.446;8.576;2023-03-03T16:04:35;100908.81;;;16.89;30.21
38227;BME280;24026;49.446;8.576;2023-03-03T16:10:07;100909.91;;;16.82;30.37
38227;BME280;24026;49.446;8.576;2023-03-03T16:15:18;100909.63;;;16.84;30.14